createdAt,value
2017-09-10T00:00:41.765Z,99888.78
2017-09-10T00:02:44.271Z,99887.53
2017-09-10T00:04:46.711Z,99892.75
2017-09-10T00:06:49.277Z,99886.63
2017-09-10T00:08:51.863Z,99886.28
2017-09-10T00:10:54.402Z,99889.42
2017-09-10T00:12:56.845Z,99887.35
2017-09-10T00:14:59.393Z,99883.61
2017-09-10T00:17:02.118Z,99885.29
2017-09-10T00:19:04.604Z,99884.67
2017-09-10T00:21:07.085Z,99881.30
2017-09-10T00:23:09.560Z,99886.11
2017-09-10T00:25:12.044Z,99889.92
2017-09-10T00:27:14.557Z,99890.98
2017-09-10T00:29:17.029Z,99888.19
2017-09-10T00:31:19.645Z,99896.57
2017-09-10T00:33:22.191Z,99892.94
2017-09-10T00:35:24.637Z,99888.57
2017-09-10T00:37:27.110Z,99891.50
2017-09-10T00:39:29.645Z,99885.80
2017-09-10T00:41:32.112Z,99888.51
2017-09-10T00:43:34.824Z,99892.04
2017-09-10T00:45:37.418Z,99889.76
2017-09-10T00:47:39.851Z,99893.39
2017-09-10T00:49:42.329Z,99891.72
2017-09-10T00:51:44.986Z,99892.06
2017-09-10T00:53:47.437Z,99897.26
2017-09-10T00:55:49.882Z,99900.14
2017-09-10T00:57:52.596Z,99905.44
2017-09-10T00:59:55.136Z,99907.63
2017-09-10T01:01:57.587Z,99909.01
2017-09-10T01:04:00.097Z,99909.70
2017-09-10T01:06:02.528Z,99915.24
2017-09-10T01:08:05.045Z,99916.87
2017-09-10T01:10:07.556Z,99923.02
2017-09-10T01:12:10.040Z,99921.84
2017-09-10T01:14:12.613Z,99930.70
2017-09-10T01:16:15.108Z,99933.59
2017-09-10T01:18:17.552Z,99935.36
2017-09-10T01:20:20.008Z,99936.52
2017-09-10T01:22:22.525Z,99929.86
2017-09-10T01:24:24.958Z,99934.14
2017-09-10T01:26:27.395Z,99937.78
2017-09-10T01:28:30.010Z,99942.86
2017-09-10T01:30:32.500Z,99940.49
2017-09-10T01:32:34.956Z,99935.38
2017-09-10T01:34:37.445Z,99943.30
2017-09-10T01:36:39.972Z,99944.67
2017-09-10T01:38:42.411Z,99947.55
2017-09-10T01:40:45.034Z,99951.30
2017-09-10T01:42:47.544Z,99965.92
2017-09-10T01:44:50.009Z,99956.17
2017-09-10T01:46:52.599Z,99955.11
2017-09-10T01:48:55.152Z,99955.11
2017-09-10T01:50:57.640Z,99953.88
2017-09-10T01:53:00.312Z,99956.30
2017-09-10T01:55:02.776Z,99958.57
2017-09-10T01:57:05.235Z,99958.26
2017-09-10T01:59:07.708Z,99969.14
2017-09-10T02:01:10.181Z,99974.77
2017-09-10T02:03:12.615Z,99966.76
2017-09-10T02:05:15.208Z,99973.83
2017-09-10T02:07:17.681Z,99971.74
2017-09-10T02:09:20.230Z,99971.14
2017-09-10T02:11:22.856Z,99978.82
2017-09-10T02:13:25.426Z,99972.77
2017-09-10T02:15:27.900Z,99976.44
2017-09-10T02:17:30.372Z,99973.51
2017-09-10T02:19:32.832Z,99978.92
2017-09-10T02:21:35.461Z,99980.89
2017-09-10T02:23:37.963Z,99980.07
2017-09-10T02:25:40.532Z,99989.30
2017-09-10T02:27:43.077Z,99989.52
2017-09-10T02:29:45.561Z,99987.53
2017-09-10T02:31:48.123Z,99991.17
2017-09-10T02:33:50.614Z,99990.97
2017-09-10T02:35:53.164Z,99988.97
2017-09-10T02:37:55.656Z,99993.02
2017-09-10T02:39:58.112Z,99986.28
2017-09-10T02:42:00.612Z,99989.81
2017-09-10T02:44:03.093Z,99988.27
2017-09-10T02:46:05.590Z,99994.09
2017-09-10T02:48:08.092Z,100000.00
2017-09-10T02:50:10.718Z,99995.44
2017-09-10T02:52:13.153Z,100003.22
2017-09-10T02:54:15.814Z,100007.79
2017-09-10T02:56:18.384Z,100004.16
2017-09-10T02:58:20.862Z,100007.80
2017-09-10T03:00:23.318Z,100002.40
2017-09-10T03:02:25.825Z,99999.95
2017-09-10T03:04:28.331Z,100004.41
2017-09-10T03:06:30.788Z,100002.23
2017-09-10T03:08:33.303Z,100008.23
2017-09-10T03:10:35.736Z,100003.67
2017-09-10T03:12:38.212Z,100008.25
2017-09-10T03:14:40.728Z,100006.28
2017-09-10T03:16:43.290Z,100008.57
2017-09-10T03:18:45.859Z,100003.37
2017-09-10T03:20:48.470Z,100009.00
2017-09-10T03:22:50.999Z,100010.03
2017-09-10T03:24:53.583Z,100007.01
2017-09-10T03:26:56.044Z,100006.39
2017-09-10T03:28:58.632Z,100007.41
2017-09-10T03:31:01.144Z,100011.80
2017-09-10T03:33:03.588Z,100018.12
2017-09-10T03:35:06.129Z,100008.77
2017-09-10T03:37:08.701Z,100011.47
2017-09-10T03:39:11.288Z,100017.92
2017-09-10T03:41:13.727Z,100010.44
2017-09-10T03:43:16.189Z,100013.34
2017-09-10T03:45:18.630Z,100021.25
2017-09-10T03:47:21.142Z,100021.25
2017-09-10T03:49:23.646Z,100022.50
2017-09-10T03:51:26.101Z,100023.77
2017-09-10T03:53:28.801Z,100025.73
2017-09-10T03:55:31.642Z,100029.67
2017-09-10T03:57:34.344Z,100026.55
2017-09-10T03:59:36.808Z,100025.41
2017-09-10T04:01:39.393Z,100019.06
2017-09-10T04:03:42.147Z,100025.20
2017-09-10T04:05:44.638Z,100022.28
2017-09-10T04:07:47.256Z,100021.36
2017-09-10T04:09:49.758Z,100028.61
2017-09-10T04:11:52.274Z,100031.32
2017-09-10T04:13:54.740Z,100034.31
2017-09-10T04:15:57.276Z,100027.89
2017-09-10T04:17:59.844Z,100031.20
2017-09-10T04:20:02.393Z,100038.36
2017-09-10T04:22:04.942Z,100035.48
2017-09-10T04:24:07.433Z,100037.44
2017-09-10T04:26:09.931Z,100045.44
2017-09-10T04:28:12.608Z,100044.79
2017-09-10T04:30:15.183Z,100047.20
2017-09-10T04:32:17.663Z,100047.39
2017-09-10T04:34:20.124Z,100049.16
2017-09-10T04:36:22.591Z,100047.07
2017-09-10T04:38:25.140Z,100045.72
2017-09-10T04:40:27.656Z,100045.02
2017-09-10T04:42:30.144Z,100044.50
2017-09-10T04:44:32.649Z,100054.25
2017-09-10T04:46:35.083Z,100055.50
2017-09-10T04:48:37.615Z,100065.47
2017-09-10T04:50:40.181Z,100060.69
2017-09-10T04:52:42.632Z,100068.36
2017-09-10T04:54:45.102Z,100066.70
2017-09-10T04:56:47.661Z,100065.77
2017-09-10T04:58:50.122Z,100066.28
2017-09-10T05:00:52.639Z,100063.91
2017-09-10T05:02:55.213Z,100067.63
2017-09-10T05:04:57.787Z,100070.74
2017-09-10T05:07:00.235Z,100069.49
2017-09-10T05:09:02.704Z,100068.27
2017-09-10T05:11:05.268Z,100068.66
2017-09-10T05:13:07.818Z,100069.62
2017-09-10T05:15:10.443Z,100076.46
2017-09-10T05:17:13.025Z,100080.41
2017-09-10T05:19:15.484Z,100080.60
2017-09-10T05:21:17.980Z,100084.65
2017-09-10T05:23:20.481Z,100088.31
2017-09-10T05:25:22.954Z,100086.41
2017-09-10T05:27:25.444Z,100092.13
2017-09-10T05:29:28.043Z,100097.63
2017-09-10T05:31:30.551Z,100106.75
2017-09-10T05:33:33.089Z,100103.86
2017-09-10T05:35:35.521Z,100109.89
2017-09-10T05:37:37.980Z,100109.80
2017-09-10T05:39:40.536Z,100108.64
2017-09-10T05:41:43.128Z,100116.32
2017-09-10T05:43:45.697Z,100113.11
2017-09-10T05:45:48.225Z,100113.43
2017-09-10T05:47:50.747Z,100117.25
2017-09-10T05:49:53.195Z,100120.50
2017-09-10T05:51:55.724Z,100118.83
2017-09-10T05:53:58.163Z,100119.34
2017-09-10T05:56:00.600Z,100116.55
2017-09-10T05:58:03.311Z,100127.76
2017-09-10T06:00:05.786Z,100119.95
2017-09-10T06:02:08.324Z,100114.36
2017-09-10T06:04:10.809Z,100123.20
2017-09-10T06:06:13.292Z,100126.31
2017-09-10T06:08:15.819Z,100128.17
2017-09-10T06:10:18.368Z,100130.23
2017-09-10T06:12:20.881Z,100138.04
2017-09-10T06:14:23.408Z,100145.59
2017-09-10T06:16:26.015Z,100151.73
2017-09-10T06:18:28.464Z,100151.21
2017-09-10T06:20:30.919Z,100158.57
2017-09-10T06:22:33.396Z,100153.30
2017-09-10T06:24:36.003Z,100155.03
2017-09-10T06:26:38.548Z,100152.65
2017-09-10T06:28:41.109Z,100158.28
2017-09-10T06:30:43.687Z,100144.14
2017-09-10T06:32:46.156Z,100144.05
2017-09-10T06:34:48.703Z,100145.30
2017-09-10T06:36:51.259Z,100146.94
2017-09-10T06:38:53.709Z,100147.06
2017-09-10T06:40:56.337Z,100142.89
2017-09-10T06:42:58.832Z,100146.65
2017-09-10T06:45:01.383Z,100144.56
2017-09-10T06:47:03.884Z,100146.42
2017-09-10T06:49:06.375Z,100145.08
2017-09-10T06:51:08.942Z,100140.61
2017-09-10T06:53:11.500Z,100137.39
2017-09-10T06:55:13.947Z,100139.67
2017-09-10T06:57:16.413Z,100141.67
2017-09-10T06:59:19.021Z,100135.86
2017-09-10T07:01:21.539Z,100132.41
2017-09-10T07:03:23.997Z,100136.38
2017-09-10T07:05:26.502Z,100135.53
2017-09-10T07:07:29.013Z,100130.75
2017-09-10T07:09:31.475Z,100132.09
2017-09-10T07:11:34.053Z,100138.33
2017-09-10T07:13:36.522Z,100136.27
2017-09-10T07:15:39.080Z,100138.23
2017-09-10T07:17:41.598Z,100142.60
2017-09-10T07:19:44.117Z,100140.00
2017-09-10T07:21:46.592Z,100142.60
2017-09-10T07:23:49.048Z,100141.25
2017-09-10T07:25:51.498Z,100144.14
2017-09-10T07:27:53.945Z,100144.88
2017-09-10T07:29:56.407Z,100145.81
2017-09-10T07:31:58.841Z,100150.38
2017-09-10T07:34:01.279Z,100146.75
2017-09-10T07:36:03.781Z,100144.78
2017-09-10T07:38:06.388Z,100148.93
2017-09-10T07:40:08.856Z,100146.00
2017-09-10T07:42:11.537Z,100143.21
2017-09-10T07:44:14.049Z,100143.11
2017-09-10T07:46:16.655Z,100136.68
2017-09-10T07:48:19.145Z,100140.19
2017-09-10T07:50:21.660Z,100144.14
2017-09-10T07:52:24.131Z,100143.52
2017-09-10T07:54:26.596Z,100147.67
2017-09-10T07:56:29.064Z,100141.85
2017-09-10T07:58:31.504Z,100148.92
2017-09-10T08:00:34.100Z,100142.08
2017-09-10T08:02:36.649Z,100152.98
2017-09-10T08:04:39.130Z,100141.67
2017-09-10T08:06:41.664Z,100144.47
2017-09-10T08:08:44.166Z,100146.66
2017-09-10T08:10:46.815Z,100145.91
2017-09-10T08:12:49.272Z,100151.63
2017-09-10T08:14:51.869Z,100154.84
2017-09-10T08:16:54.386Z,100155.32
2017-09-10T08:18:56.885Z,100150.19
2017-09-10T08:20:59.398Z,100143.73
2017-09-10T08:23:01.896Z,100140.00
2017-09-10T08:25:04.364Z,100143.85
2017-09-10T08:27:06.956Z,100144.56
2017-09-10T08:29:09.413Z,100149.34
2017-09-10T08:31:11.896Z,100153.49
2017-09-10T08:33:14.583Z,100145.30
2017-09-10T08:35:17.129Z,100148.70
2017-09-10T08:37:19.585Z,100148.70
2017-09-10T08:39:22.013Z,100145.39
2017-09-10T08:41:24.469Z,100149.44
2017-09-10T08:43:26.929Z,100149.63
2017-09-10T08:45:29.412Z,100154.00
2017-09-10T08:47:31.950Z,100154.09
2017-09-10T08:49:34.524Z,100158.87
2017-09-10T08:51:36.964Z,100158.05
2017-09-10T08:53:39.467Z,100158.55
2017-09-10T08:55:42.004Z,100158.67
2017-09-10T08:57:44.488Z,100159.70
2017-09-10T08:59:47.016Z,100157.11
2017-09-10T09:01:49.781Z,100155.14
2017-09-10T09:03:52.327Z,100159.78
2017-09-10T09:05:54.790Z,100155.64
2017-09-10T09:07:57.254Z,100160.81
2017-09-10T09:09:59.731Z,100152.01
2017-09-10T09:12:02.206Z,100149.98
2017-09-10T09:14:04.713Z,100147.41
2017-09-10T09:16:07.247Z,100151.56
2017-09-10T09:18:09.713Z,100156.98
2017-09-10T09:20:12.226Z,100152.93
2017-09-10T09:22:14.697Z,100153.77
2017-09-10T09:24:17.128Z,100158.03
2017-09-10T09:26:19.642Z,100154.38
2017-09-10T09:28:22.099Z,100148.25
2017-09-10T09:30:24.586Z,100155.00
2017-09-10T09:32:27.065Z,100149.60
2017-09-10T09:34:29.539Z,100160.30
2017-09-10T09:36:32.153Z,100150.52
2017-09-10T09:38:34.619Z,100147.00
2017-09-10T09:40:37.091Z,100152.58
2017-09-10T09:42:39.575Z,100147.29
2017-09-10T09:44:42.108Z,100139.58
2017-09-10T09:46:44.572Z,100149.27
2017-09-10T09:48:47.401Z,100149.27
2017-09-10T09:50:49.869Z,100149.14
2017-09-10T09:52:52.309Z,100141.44
2017-09-10T09:54:54.856Z,100141.86
2017-09-10T09:56:57.376Z,100136.26
2017-09-10T09:59:00.760Z,100133.25
2017-09-10T10:01:04.156Z,100137.66
2017-09-10T10:03:06.748Z,100138.23
2017-09-10T10:05:09.234Z,100132.69
2017-09-10T10:07:11.705Z,100136.83
2017-09-10T10:09:14.173Z,100131.20
2017-09-10T10:11:16.621Z,100128.68
2017-09-10T10:13:19.101Z,100124.80
2017-09-10T10:15:21.625Z,100126.01
2017-09-10T10:17:24.172Z,100125.26
2017-09-10T10:19:26.619Z,100127.03
2017-09-10T10:21:29.167Z,100120.61
2017-09-10T10:23:31.718Z,100118.08
2017-09-10T10:25:34.177Z,100124.23
2017-09-10T10:27:36.671Z,100128.28
2017-09-10T10:29:39.106Z,100131.59
2017-09-10T10:31:41.617Z,100123.28
2017-09-10T10:33:44.131Z,100121.19
2017-09-10T10:35:46.656Z,100124.70
2017-09-10T10:37:49.136Z,100121.70
2017-09-10T10:39:51.673Z,100132.89
2017-09-10T10:41:54.186Z,100128.83
2017-09-10T10:43:56.626Z,100130.84
2017-09-10T10:45:59.087Z,100127.08
2017-09-10T10:48:01.564Z,100125.74
2017-09-10T10:50:04.003Z,100124.91
2017-09-10T10:52:06.454Z,100125.47
2017-09-10T10:54:08.913Z,100129.51
2017-09-10T10:56:11.391Z,100133.41
2017-09-10T10:58:13.985Z,100136.80
2017-09-10T11:00:16.431Z,100133.06
2017-09-10T11:02:19.030Z,100129.20
2017-09-10T11:04:21.707Z,100124.34
2017-09-10T11:06:24.187Z,100121.09
2017-09-10T11:08:26.656Z,100121.23
2017-09-10T11:10:29.381Z,100117.75
2017-09-10T11:12:31.919Z,100116.20
2017-09-10T11:14:34.612Z,100111.86
2017-09-10T11:16:37.158Z,100111.53
2017-09-10T11:18:39.626Z,100113.00
2017-09-10T11:20:42.071Z,100113.92
2017-09-10T11:22:44.697Z,100106.11
2017-09-10T11:24:47.203Z,100104.86
2017-09-10T11:26:49.676Z,100101.17
2017-09-10T11:28:52.176Z,100101.76
2017-09-10T11:30:55.012Z,100106.98
2017-09-10T11:32:57.509Z,100111.02
2017-09-10T11:35:00.072Z,100105.41
2017-09-10T11:37:02.605Z,100105.23
2017-09-10T11:39:05.065Z,100112.59
2017-09-10T11:41:07.620Z,100105.97
2017-09-10T11:43:10.124Z,100106.59
2017-09-10T11:45:12.593Z,100089.55
2017-09-10T11:47:15.201Z,100094.23
2017-09-10T11:49:17.764Z,100083.02
2017-09-10T11:51:20.304Z,100091.16
2017-09-10T11:53:22.761Z,100081.37
2017-09-10T11:55:25.196Z,100092.41
2017-09-10T11:57:27.644Z,100088.02
2017-09-10T11:59:30.110Z,100085.54
2017-09-10T12:01:32.640Z,100081.17
2017-09-10T12:03:35.100Z,100085.20
2017-09-10T12:05:37.626Z,100085.73
2017-09-10T12:07:40.098Z,100084.14
2017-09-10T12:09:42.564Z,100083.95
2017-09-10T12:11:45.088Z,100072.34
2017-09-10T12:13:47.591Z,100074.23
2017-09-10T12:15:50.064Z,100071.22
2017-09-10T12:17:52.537Z,100073.17
2017-09-10T12:19:55.003Z,100067.11
2017-09-10T12:21:57.479Z,100069.28
2017-09-10T12:23:59.937Z,100065.13
2017-09-10T12:26:02.443Z,100065.47
2017-09-10T12:28:04.981Z,100069.48
2017-09-10T12:30:07.445Z,100065.09
2017-09-10T12:32:09.924Z,100074.95
2017-09-10T12:34:12.477Z,100074.94
2017-09-10T12:36:15.013Z,100074.33
2017-09-10T12:38:17.527Z,100074.16
2017-09-10T12:40:20.003Z,100071.77
2017-09-10T12:42:22.486Z,100066.16
2017-09-10T12:44:24.946Z,100059.53
2017-09-10T12:46:27.420Z,100067.77
2017-09-10T12:48:30.050Z,100061.33
2017-09-10T12:50:32.556Z,100054.83
2017-09-10T12:52:35.159Z,100056.89
2017-09-10T12:54:37.645Z,100047.25
2017-09-10T12:56:40.162Z,100051.98
2017-09-10T12:58:42.652Z,100050.52
2017-09-10T13:00:45.156Z,100046.66
2017-09-10T13:02:47.620Z,100046.44
2017-09-10T13:04:50.767Z,100047.44
2017-09-10T13:06:53.457Z,100042.11
2017-09-10T13:08:55.887Z,100045.62
2017-09-10T13:10:58.484Z,100041.88
2017-09-10T13:13:00.961Z,100038.37
2017-09-10T13:15:03.403Z,100040.58
2017-09-10T13:17:05.852Z,100036.72
2017-09-10T13:19:08.313Z,100039.42
2017-09-10T13:21:10.819Z,100038.33
2017-09-10T13:23:13.544Z,100039.83
2017-09-10T13:25:16.068Z,100034.85
2017-09-10T13:27:18.541Z,100039.48
2017-09-10T13:29:21.022Z,100033.16
2017-09-10T13:31:23.608Z,100032.23
2017-09-10T13:33:26.061Z,100031.57
2017-09-10T13:35:28.510Z,100027.66
2017-09-10T13:37:30.968Z,100030.98
2017-09-10T13:39:33.453Z,100020.30
2017-09-10T13:41:35.889Z,100016.42
2017-09-10T13:43:38.360Z,100014.58
2017-09-10T13:45:40.834Z,100009.91
2017-09-10T13:47:43.336Z,100015.61
2017-09-10T13:49:45.965Z,100007.92
2017-09-10T13:51:48.512Z,100006.15
2017-09-10T13:53:50.982Z,100008.28
2017-09-10T13:55:53.536Z,100004.57
2017-09-10T13:57:56.064Z,100005.37
2017-09-10T13:59:58.519Z,100005.42
2017-09-10T14:02:01.055Z,100002.33
2017-09-10T14:04:03.601Z,99991.49
2017-09-10T14:06:06.242Z,99996.88
2017-09-10T14:08:09.112Z,99996.13
2017-09-10T14:10:11.544Z,99997.19
2017-09-10T14:12:14.064Z,99992.87
2017-09-10T14:14:16.629Z,100001.84
2017-09-10T14:16:19.108Z,99994.05
2017-09-10T14:18:21.637Z,99993.91
2017-09-10T14:20:24.320Z,99986.37
2017-09-10T14:22:26.826Z,99978.11
2017-09-10T14:24:29.289Z,99977.25
2017-09-10T14:26:31.785Z,99978.73
2017-09-10T14:28:34.308Z,99986.63
2017-09-10T14:30:36.749Z,99989.03
2017-09-10T14:32:39.299Z,99988.30
2017-09-10T14:34:41.745Z,99990.61
2017-09-10T14:36:44.514Z,99996.88
2017-09-10T14:38:47.178Z,99990.72
2017-09-10T14:40:49.693Z,99991.11
2017-09-10T14:42:52.201Z,99987.70
2017-09-10T14:44:54.843Z,99991.89
2017-09-10T14:46:57.451Z,100000.56
2017-09-10T14:49:00.072Z,99997.38
2017-09-10T14:51:02.533Z,99998.61
2017-09-10T14:53:05.168Z,100005.91
2017-09-10T14:55:07.644Z,99998.08
2017-09-10T14:57:10.113Z,99997.12
2017-09-10T14:59:12.612Z,99992.18
2017-09-10T15:01:15.231Z,99989.25
2017-09-10T15:03:17.689Z,99990.44
2017-09-10T15:05:20.136Z,99985.81
2017-09-10T15:07:22.642Z,99976.15
2017-09-10T15:09:25.165Z,99979.97
2017-09-10T15:11:27.601Z,99987.13
2017-09-10T15:13:30.100Z,99992.34
2017-09-10T15:15:32.570Z,99990.06
2017-09-10T15:17:35.118Z,99987.27
2017-09-10T15:19:37.573Z,99983.48
2017-09-10T15:21:40.088Z,99982.98
2017-09-10T15:23:42.629Z,99981.12
2017-09-10T15:25:45.207Z,99985.67
2017-09-10T15:27:47.775Z,99988.95
2017-09-10T15:29:50.232Z,99989.53
2017-09-10T15:31:52.668Z,99989.69
2017-09-10T15:33:55.164Z,99991.85
2017-09-10T15:35:57.656Z,99986.48
2017-09-10T15:38:00.209Z,99992.97
2017-09-10T15:40:02.804Z,99995.40
2017-09-10T15:42:05.284Z,99986.36
2017-09-10T15:44:07.789Z,99981.08
2017-09-10T15:46:10.376Z,99982.93
2017-09-10T15:48:12.799Z,99978.25
2017-09-10T15:50:15.375Z,99985.00
2017-09-10T15:52:17.873Z,99976.06
2017-09-10T15:54:20.398Z,99973.53
2017-09-10T15:56:22.850Z,99967.50
2017-09-10T15:58:25.409Z,99967.20
2017-09-10T16:00:27.914Z,99968.13
2017-09-10T16:02:30.442Z,99974.11
2017-09-10T16:04:33.057Z,99965.31
2017-09-10T16:06:35.544Z,99962.27
2017-09-10T16:08:38.058Z,99970.44
2017-09-10T16:10:40.716Z,99963.34
2017-09-10T16:12:43.154Z,99962.61
2017-09-10T16:14:45.599Z,99960.90
2017-09-10T16:16:48.108Z,99956.06
2017-09-10T16:18:50.614Z,99953.56
2017-09-10T16:20:53.059Z,99966.02
2017-09-10T16:22:55.561Z,99958.52
2017-09-10T16:24:58.116Z,99965.42
2017-09-10T16:27:00.701Z,99965.03
2017-09-10T16:29:03.211Z,99960.94
2017-09-10T16:31:05.708Z,99953.87
2017-09-10T16:33:08.157Z,99948.80
2017-09-10T16:35:10.654Z,99946.08
2017-09-10T16:37:13.183Z,99948.88
2017-09-10T16:39:15.703Z,99940.60
2017-09-10T16:41:18.238Z,99945.03
2017-09-10T16:43:20.713Z,99943.64
2017-09-10T16:45:23.202Z,99943.38
2017-09-10T16:47:25.676Z,99936.73
2017-09-10T16:49:28.136Z,99936.18
2017-09-10T16:51:30.568Z,99936.20
2017-09-10T16:53:33.097Z,99931.34
2017-09-10T16:55:35.530Z,99930.53
2017-09-10T16:57:38.062Z,99931.98
2017-09-10T16:59:40.524Z,99931.98
2017-09-10T17:01:43.059Z,99935.33
2017-09-10T17:03:45.504Z,99931.87
2017-09-10T17:05:47.964Z,99923.95
2017-09-10T17:07:50.494Z,99921.07
2017-09-10T17:09:53.022Z,99922.94
2017-09-10T17:11:55.613Z,99921.59
2017-09-10T17:13:58.087Z,99917.33
2017-09-10T17:16:00.520Z,99917.75
2017-09-10T17:18:03.015Z,99921.88
2017-09-10T17:20:05.478Z,99919.08
2017-09-10T17:22:07.926Z,99905.64
2017-09-10T17:24:10.515Z,99901.70
2017-09-10T17:26:12.960Z,99902.29
2017-09-10T17:28:15.501Z,99907.75
2017-09-10T17:30:17.973Z,99907.80
2017-09-10T17:32:20.573Z,99911.95
2017-09-10T17:34:23.010Z,99903.86
2017-09-10T17:36:25.765Z,99915.46
2017-09-10T17:38:28.219Z,99910.75
2017-09-10T17:40:30.752Z,99908.11
2017-09-10T17:42:33.262Z,99908.84
2017-09-10T17:44:35.700Z,99904.89
2017-09-10T17:46:38.155Z,99907.20
2017-09-10T17:48:40.672Z,99904.91
2017-09-10T17:50:43.245Z,99906.48
2017-09-10T17:52:45.713Z,99905.37
2017-09-10T17:54:48.169Z,99900.59
2017-09-10T17:56:50.685Z,99897.47
2017-09-10T17:58:53.229Z,99899.86
2017-09-10T18:00:55.716Z,99894.23
2017-09-10T18:02:58.157Z,99888.28
2017-09-10T18:05:00.605Z,99889.20
2017-09-10T18:07:03.341Z,99880.66
2017-09-10T18:09:05.802Z,99881.03
2017-09-10T18:11:08.234Z,99875.66
2017-09-10T18:13:10.767Z,99877.44
2017-09-10T18:15:13.213Z,99876.29
2017-09-10T18:17:15.647Z,99874.86
2017-09-10T18:19:18.264Z,99877.91
2017-09-10T18:21:20.746Z,99872.26
2017-09-10T18:23:23.278Z,99874.89
2017-09-10T18:25:25.752Z,99872.37
2017-09-10T18:27:28.188Z,99872.06
2017-09-10T18:29:30.697Z,99862.73
2017-09-10T18:31:33.152Z,99865.77
2017-09-10T18:33:35.594Z,99861.03
2017-09-10T18:35:38.024Z,99862.68
2017-09-10T18:37:40.492Z,99864.20
2017-09-10T18:39:43.149Z,99863.11
2017-09-10T18:41:45.653Z,99860.30
2017-09-10T18:43:48.712Z,99862.11
2017-09-10T18:45:51.302Z,99858.41
2017-09-10T18:47:53.772Z,99847.52
2017-09-10T18:49:56.633Z,99851.65
2017-09-10T18:51:59.202Z,99851.22
2017-09-10T18:54:01.732Z,99844.50
2017-09-10T18:56:04.203Z,99852.14
2017-09-10T18:58:06.657Z,99841.46
2017-09-10T19:00:09.096Z,99837.22
2017-09-10T19:02:11.755Z,99838.09
2017-09-10T19:04:14.456Z,99831.13
2017-09-10T19:06:16.906Z,99829.39
2017-09-10T19:08:19.361Z,99824.80
2017-09-10T19:10:21.900Z,99821.88
2017-09-10T19:12:24.332Z,99817.02
2017-09-10T19:14:26.986Z,99808.45
2017-09-10T19:16:29.483Z,99804.70
2017-09-10T19:18:32.013Z,99808.02
2017-09-10T19:20:34.471Z,99808.13
2017-09-10T19:22:37.060Z,99808.50
2017-09-10T19:24:39.535Z,99801.13
2017-09-10T19:26:42.002Z,99801.63
2017-09-10T19:28:44.517Z,99804.44
2017-09-10T19:30:46.953Z,99805.17
2017-09-10T19:32:49.546Z,99802.77
2017-09-10T19:34:52.167Z,99800.14
2017-09-10T19:36:54.628Z,99801.41
2017-09-10T19:38:57.185Z,99800.80
2017-09-10T19:40:59.710Z,99801.80
2017-09-10T19:43:02.287Z,99800.10
2017-09-10T19:45:04.763Z,99791.78
2017-09-10T19:47:07.326Z,99790.25
2017-09-10T19:49:09.770Z,99788.97
2017-09-10T19:51:12.355Z,99778.80
2017-09-10T19:53:15.046Z,99774.23
2017-09-10T19:55:17.494Z,99762.11
2017-09-10T19:57:20.148Z,99764.30
2017-09-10T19:59:22.655Z,99765.41
2017-09-10T20:01:25.156Z,99762.61
2017-09-10T20:03:27.667Z,99759.73
2017-09-10T20:05:30.114Z,99751.22
2017-09-10T20:07:32.639Z,99747.17
2017-09-10T20:09:35.171Z,99748.27
2017-09-10T20:11:37.683Z,99744.84
2017-09-10T20:13:40.124Z,99740.93
2017-09-10T20:15:42.678Z,99750.36
2017-09-10T20:17:45.166Z,99750.03
2017-09-10T20:19:47.605Z,99744.81
2017-09-10T20:21:50.065Z,99736.45
2017-09-10T20:23:52.720Z,99735.63
2017-09-10T20:25:55.237Z,99728.17
2017-09-10T20:27:57.770Z,99723.84
2017-09-10T20:30:00.232Z,99724.85
2017-09-10T20:32:02.685Z,99724.96
2017-09-10T20:34:05.206Z,99715.46
2017-09-10T20:36:07.661Z,99704.03
2017-09-10T20:38:10.234Z,99719.88
2017-09-10T20:40:12.705Z,99713.70
2017-09-10T20:42:15.133Z,99706.83
2017-09-10T20:44:17.658Z,99710.94
2017-09-10T20:46:20.167Z,99712.38
2017-09-10T20:48:22.765Z,99713.66
2017-09-10T20:50:25.205Z,99703.37
2017-09-10T20:52:27.701Z,99708.16
2017-09-10T20:54:30.180Z,99702.16
2017-09-10T20:56:32.683Z,99694.63
2017-09-10T20:58:35.163Z,99688.20
2017-09-10T21:00:37.604Z,99679.80
2017-09-10T21:02:40.112Z,99670.26
2017-09-10T21:04:42.610Z,99671.22
2017-09-10T21:06:45.299Z,99670.13
2017-09-10T21:08:47.790Z,99663.82
2017-09-10T21:10:50.547Z,99661.77
2017-09-10T21:12:53.093Z,99653.75
2017-09-10T21:14:55.553Z,99649.17
2017-09-10T21:16:58.101Z,99634.66
2017-09-10T21:19:00.632Z,99640.67
2017-09-10T21:21:03.103Z,99638.26
2017-09-10T21:23:05.574Z,99645.13
2017-09-10T21:25:08.072Z,99640.05
2017-09-10T21:27:10.553Z,99640.58
2017-09-10T21:29:13.015Z,99638.15
2017-09-10T21:31:15.465Z,99630.50
2017-09-10T21:33:17.917Z,99634.62
2017-09-10T21:35:20.413Z,99631.15
2017-09-10T21:37:22.840Z,99631.02
2017-09-10T21:39:25.399Z,99617.25
2017-09-10T21:41:27.854Z,99613.56
2017-09-10T21:43:30.282Z,99612.58
2017-09-10T21:45:32.748Z,99615.08
2017-09-10T21:47:35.208Z,99613.05
2017-09-10T21:49:37.760Z,99618.41
2017-09-10T21:51:40.272Z,99614.78
2017-09-10T21:53:42.737Z,99604.09
2017-09-10T21:55:45.223Z,99608.78
2017-09-10T21:57:47.704Z,99606.66
2017-09-10T21:59:50.245Z,99613.30
2017-09-10T22:01:52.759Z,99597.42
2017-09-10T22:03:55.287Z,99600.59
2017-09-10T22:05:57.856Z,99593.06
2017-09-10T22:08:00.380Z,99594.57
2017-09-10T22:10:02.862Z,99589.11
2017-09-10T22:12:05.362Z,99591.93
2017-09-10T22:14:07.841Z,99588.30
2017-09-10T22:16:10.353Z,99587.18
2017-09-10T22:18:13.009Z,99589.20
2017-09-10T22:20:15.468Z,99581.86
2017-09-10T22:22:17.968Z,99590.59
2017-09-10T22:24:20.446Z,99589.86
2017-09-10T22:26:22.911Z,99573.46
2017-09-10T22:28:55.970Z,99563.69
2017-09-10T22:30:58.484Z,99553.59
2017-09-10T22:33:00.993Z,99557.20
2017-09-10T22:35:03.422Z,99555.96
2017-09-10T22:37:05.908Z,99544.42
2017-09-10T22:39:08.336Z,99541.19
2017-09-10T22:41:10.810Z,99544.99
2017-09-10T22:43:13.276Z,99526.80
2017-09-10T22:45:15.814Z,99528.63
2017-09-10T22:47:18.285Z,99515.45
2017-09-10T22:49:20.750Z,99519.77
2017-09-10T22:51:23.188Z,99515.77
2017-09-10T22:53:25.629Z,99517.38
2017-09-10T22:55:28.117Z,99515.61
2017-09-10T22:57:30.563Z,99513.93
2017-09-10T22:59:33.020Z,99509.73
2017-09-10T23:01:35.508Z,99505.04
2017-09-10T23:03:38.088Z,99503.09
2017-09-10T23:05:40.617Z,99500.06
2017-09-10T23:07:43.072Z,99498.37
2017-09-10T23:09:45.619Z,99489.95
2017-09-10T23:11:48.061Z,99490.76
2017-09-10T23:13:50.542Z,99484.80
2017-09-10T23:15:53.073Z,99481.73
2017-09-10T23:17:55.510Z,99473.47
2017-09-10T23:19:58.153Z,99467.78
2017-09-10T23:22:00.644Z,99460.92
2017-09-10T23:24:03.068Z,99453.64
2017-09-10T23:26:06.759Z,99460.48
2017-09-10T23:28:09.254Z,99452.89
2017-09-10T23:30:11.760Z,99460.20
2017-09-10T23:32:14.369Z,99466.21
2017-09-10T23:34:16.945Z,99452.63
2017-09-10T23:36:19.372Z,99438.81
2017-09-10T23:38:21.879Z,99439.25